Airfield :
LOGIN :

Register | Disclaimer

   EN    FR    IT 

 










Legend :    VFR   Marginal VFR   IFR   Intensive IFR   Very Intensive IFR
Visi :
Ceiling :
>= 8 km
>= 3000ft
5 to 8 km
1000 to 3000 ft
1500m to 5 km
500 to 1000 ft
800 to 1500m
200 to 500 ft
< 800m
< 200 ft
Symbols :   Thunderstorms  Fog  Heavy snow  Heavy precipitations  Wind > 20 kt
SIGMETs :     Misc.  Thunderstorms  Icing  Turbulence  Mountain Waves  Volcanic Ashes






- Airport Elevation : 741 ft
- IATA code : JKG


ESGJ - Jönköping

CURRENT METAR :
  • 260550Z 18004KT 140V210 3200 RA FEW004 BKN008 09/09 Q1009

EXPIRED METARs :
  • 260520Z 19006KT 5000 -RA BKN005 09/09 Q1009
  • 260450Z AUTO 20007KT 4900 DZ BKN005/// OVC008/// 09/09 Q1009 REDZ
  • 260420Z AUTO 21008KT 6000 DZ OVC005/// 08/08 Q1009
  • 260350Z AUTO 20011KT 6000 BR OVC005/// 09/09 Q1009
  • 260320Z AUTO 20009KT 7000 BR OVC005/// 08/08 Q1009

TAF TAF ESGJ
Valid from the 26 at 06:00 until the 26 at 15:00 UTC


260530Z 2606/2615 19010KT 6000 BKN004
TEMPO 2606/2609 2500 SHRA BR BKN007 BKN020CB
BECMG 2609/2611 25010KT FEW010 BKN030



MET'MAP, your aeronautical weather chart ! - Copyright ORBIFLY December 2007 - Disclaimer

ORBIFLY MET'MAP TEAM :

Programming & Development : Alexandra Zaïnal
Concept & original design : Baudouin d'Aumeries
Assistance for programming : Marc-Olivier Méhu
Technical & hardware support : Manuel Goepfert

Contact : metmap@orbifly.com




SOURCES & CREDITS :

   NOAA